ADDS METAR Data INFO
IDs: Format: Raw Decoded Include TAF

Data at: 0747 UTC 20 Feb 2018

KHOU 200653Z 15014G21KT 10SM BKN012 22/21 A2997 RMK AO2 SLP154 T02170211
KHOU 200553Z 16013KT 10SM BKN011 22/21 A2998 RMK AO2 SLP156 T02170211 10228 20217 402610194 50005
KHOU 200453Z 16014G21KT 10SM OVC011 22/21 A2998 RMK AO2 PK WND 15026/0403 SLP156 T02220211
KHOU 200353Z 15015G22KT 10SM BKN011 BKN020 22/21 A2997 RMK AO2 SLP154 T02170211
KHOU 200253Z 15014G23KT 10SM OVC011 22/21 A2996 RMK AO2 SLP151 T02220211 52003
KHOU 200153Z 17011KT 10SM OVC013 22/22 A2996 RMK AO2 SLP150 T02220217
KHOU 200053Z 14011G21KT 10SM OVC011 22/21 A2995 RMK AO2 SLP148 T02220211
KHOU 200011Z 15014G19KT 10SM BKN013 BKN018 OVC070 23/21 A2995 RMK AO2 T02280211
KHOU 192353Z 14014G20KT 10SM OVC016 23/21 A2995 RMK AO2 SLP147 60000 T02280211 10261 20228 55002
KHOU 192253Z 14014G17KT 10SM BKN018 BKN024 OVC060 23/21 A2994 RMK AO2 RAB06E15 SLP144 P0000 T02280206
KHOU 192153Z 15014G19KT 10SM BKN024 OVC065 24/20 A2995 RMK AO2 PK WND 19026/2118 SLP145 T02390200
KHOU 192053Z 16018G25KT 10SM BKN025 OVC065 24/19 A2996 RMK AO2 PK WND 16026/2038 SLP149 T02390189 56018
KHOU 191953Z 16017G26KT 10SM SCT030 BKN065 BKN250 26/19 A2996 RMK AO2 PK WND 17026/1932 SLP149 T02560189
KHOU 191853Z 14017G25KT 10SM SCT025 BKN250 25/19 A2998 RMK AO2 SLP155 T02500194
KHOU 191753Z 16014G22KT 10SM SCT025 BKN250 25/20 A3001 RMK AO2 SLP167 T02500200 10250 20194 58002
KHOU 191653Z 16012G22KT 10SM BKN025 BKN250 24/20 A3003 RMK AO2 SLP174 T02440200
KHOU 191553Z 16014G21KT 10SM BKN017 BKN250 24/21 A3002 RMK AO2 SLP172 T02390206
KHOU 191530Z 15014G22KT 10SM BKN015 BKN250 23/21 A3002 RMK AO2 T02330206
KHOU 191514Z 16014G23KT 10SM SCT012 BKN250 23/21 A3002 RMK AO2 T02280206
KHOU 191453Z 16010KT 10SM BKN010 BKN250 22/21 A3002 RMK AO2 SLP170 T02170206 53010
KHOU 191426Z 16011KT 10SM BKN010 BKN250 21/20 A3001 RMK AO2 T02110200
KHOU 191353Z 16008KT 10SM FEW010 BKN250 20/20 A3001 RMK AO2 SLP165 T02000200
KHOU 191253Z 16008KT 10SM FEW010 BKN250 19/19 A2999 RMK AO2 SLP161 T01940194
KHOU 191243Z 16009KT 10SM FEW010 BKN250 19/19 A2999 RMK AO2 T01940194
KHOU 191220Z 16010KT 10SM SCT010 BKN015 BKN025 19/19 A2998 RMK AO2 T01940194
KHOU 191153Z 16008KT 10SM OVC010 20/19 A2999 RMK AO2 SLP159 T02000194 10211 20194 53004
KHOU 191132Z 16008KT 10SM BKN011 OVC027 21/20 A2999 RMK AO2 T02060200
KHOU 191053Z 16011KT 10SM BKN017 BKN021 OVC026 21/20 A2998 RMK AO2 SLP156 T02060200
KHOU 190953Z 16013G18KT 10SM OVC027 21/19 A2997 RMK AO2 SLP155 T02110194
KHOU 190853Z 16011KT 10SM FEW010 OVC024 21/19 A2998 RMK AO2 SLP156 T02060194 56013
KHOU 190753Z 15011KT 9SM SCT010 BKN024 20/19 A2999 RMK AO2 SLP159 T02000194
KHOU 190653Z 17010KT 10SM SCT010 20/19 A3000 RMK AO2 SLP163 T02000194
KHOU 190553Z 16011G21KT 10SM BKN011 21/20 A3002 RMK AO2 SLP169 T02060200 10228 20206 402670156 58004
KHOU 190453Z 15012G21KT 10SM BKN009 21/20 A3002 RMK AO2 SLP171 T02060200
KHOU 190353Z 14010G16KT 10SM BKN009 21/21 A3003 RMK AO2 SLP174 T02060206
KHOU 190318Z 14008G17KT 10SM BKN009 21/21 A3003 RMK AO2 T02060206
KHOU 190253Z 14008KT 10SM SCT008 BKN250 21/20 A3003 RMK AO2 SLP173 T02060200 50002
KHOU 190219Z 14009KT 10SM SCT008 BKN250 21/21 A3003 RMK AO2 T02060206
KHOU 190153Z 15009KT 10SM SCT011 BKN250 21/21 A3003 RMK AO2 SLP174 T02060206
KHOU 190053Z 15009G17KT 10SM SCT015 BKN250 21/20 A3002 RMK AO2 SLP171 T02110200
KHOU 182353Z 15011G18KT 10SM FEW020 BKN027 BKN250 23/20 A3002 RMK AO2 SLP171 T02280200 10267 20222 55002
KHOU 182253Z 16015G20KT 10SM SCT026 BKN035 BKN250 24/19 A3002 RMK AO2 SLP169 T02440194
KHOU 182153Z 14014G19KT 10SM FEW026 BKN035 BKN250 25/19 A3002 RMK AO2 SLP171 T02500194
KHOU 182053Z 14010KT 10SM FEW022 BKN035 BKN250 26/19 A3003 RMK AO2 SLP174 T02560194 56033
KHOU 181953Z 14007KT 10SM SCT024 BKN040 BKN250 25/19 A3005 RMK AO2 SLP182 T02500194